createdAt,value
2022-08-07T00:01:12.483Z,89.19
2022-08-07T00:03:53.294Z,89.99
2022-08-07T00:06:29.552Z,90.29
2022-08-07T00:09:16.169Z,89.89
2022-08-07T00:11:53.874Z,90.37
2022-08-07T00:14:25.518Z,90.64
2022-08-07T00:16:57.162Z,90.89
2022-08-07T00:19:26.054Z,90.66
2022-08-07T00:22:02.192Z,91.02
2022-08-07T00:24:31.696Z,91.52
2022-08-07T00:27:07.288Z,91.24
2022-08-07T00:29:36.934Z,91.06
2022-08-07T00:32:05.989Z,91.38
2022-08-07T00:34:35.536Z,90.74
2022-08-07T00:37:02.394Z,89.82
2022-08-07T00:39:31.786Z,90.76
2022-08-07T00:42:01.712Z,90.74
2022-08-07T00:44:31.156Z,91.48
2022-08-07T00:46:59.737Z,91.37
2022-08-07T00:50:19.571Z,91.07
2022-08-07T00:52:12.542Z,92.33
2022-08-07T00:54:40.602Z,91.07
2022-08-07T00:57:07.543Z,90.41
2022-08-07T00:59:37.427Z,91.05
2022-08-07T01:02:14.167Z,91.08
2022-08-07T01:04:54.687Z,91.11
2022-08-07T01:07:27.578Z,90.83
2022-08-07T01:10:05.959Z,90.29
2022-08-07T01:12:39.985Z,90.45
2022-08-07T01:15:20.399Z,90.33
2022-08-07T01:17:46.970Z,90.81
2022-08-07T01:20:16.755Z,91.29
2022-08-07T01:22:46.683Z,91.46
2022-08-07T01:25:54.184Z,89.71
2022-08-07T01:28:08.318Z,90.95
2022-08-07T01:30:39.100Z,89.59
2022-08-07T01:33:05.661Z,90.71
2022-08-07T01:35:52.730Z,90.64
2022-08-07T01:38:25.081Z,91.05
2022-08-07T01:40:59.111Z,91.48
2022-08-07T01:43:37.976Z,91.09
2022-08-07T01:46:05.519Z,91.11
2022-08-07T01:48:35.116Z,90.10
2022-08-07T01:51:58.615Z,90.74
2022-08-07T01:54:09.188Z,91.92
2022-08-07T01:56:55.291Z,90.84
2022-08-07T01:59:24.461Z,91.80
2022-08-07T02:02:06.140Z,91.19
2022-08-07T02:04:52.669Z,91.32
2022-08-07T02:07:44.846Z,91.17
2022-08-07T02:10:14.252Z,91.56
2022-08-07T02:12:43.502Z,91.41
2022-08-07T02:15:14.938Z,92.47
2022-08-07T02:17:49.607Z,92.80
2022-08-07T02:20:23.446Z,93.27
2022-08-07T02:22:55.150Z,92.08
2022-08-07T02:26:10.750Z,93.00
2022-08-07T02:28:12.656Z,92.75
2022-08-07T02:30:40.141Z,92.82
2022-08-07T02:33:10.555Z,93.04
2022-08-07T02:36:30.296Z,92.66
2022-08-07T02:38:31.930Z,91.93
2022-08-07T02:41:00.563Z,91.81
2022-08-07T02:43:27.965Z,91.69
2022-08-07T02:46:00.505Z,91.52
2022-08-07T02:48:29.048Z,91.53
2022-08-07T02:50:57.214Z,90.61
2022-08-07T02:53:38.728Z,89.71
2022-08-07T02:56:17.331Z,89.39
2022-08-07T02:58:47.171Z,89.66
2022-08-07T03:01:35.261Z,88.61
2022-08-07T03:04:07.035Z,89.11
2022-08-07T03:06:40.326Z,89.44
2022-08-07T03:09:11.261Z,89.40
2022-08-07T03:11:51.734Z,88.92
2022-08-07T03:14:24.894Z,88.04
2022-08-07T03:16:52.495Z,87.81
2022-08-07T03:19:20.214Z,87.50
2022-08-07T03:21:50.813Z,86.96
2022-08-07T03:24:26.865Z,86.92
2022-08-07T03:26:59.113Z,86.93
2022-08-07T03:29:49.483Z,87.64
2022-08-07T03:32:22.070Z,86.77
2022-08-07T03:35:18.112Z,87.29
2022-08-07T03:37:45.997Z,86.85
2022-08-07T03:40:20.282Z,86.60
2022-08-07T03:42:50.967Z,87.45
2022-08-07T03:45:30.449Z,87.49
2022-08-07T03:47:59.230Z,86.56
2022-08-07T03:50:28.567Z,86.23
2022-08-07T03:52:58.578Z,86.40
2022-08-07T03:55:57.709Z,85.17
2022-08-07T03:59:05.418Z,85.03
2022-08-07T04:01:00.479Z,85.86
2022-08-07T04:03:27.150Z,84.78
2022-08-07T04:05:58.901Z,85.62
2022-08-07T04:08:26.562Z,86.10
2022-08-07T04:12:21.549Z,86.79
2022-08-07T04:14:33.159Z,86.86
2022-08-07T04:16:31.298Z,86.53
2022-08-07T04:19:01.654Z,86.67
2022-08-07T04:21:31.184Z,86.17
2022-08-07T04:24:03.919Z,86.17
2022-08-07T04:26:33.636Z,85.86
2022-08-07T04:29:00.094Z,84.54
2022-08-07T04:31:39.080Z,84.53
2022-08-07T04:34:16.598Z,85.15
2022-08-07T04:36:43.884Z,84.24
2022-08-07T04:39:12.215Z,84.03
2022-08-07T04:41:38.783Z,84.02
2022-08-07T04:44:11.723Z,84.30
2022-08-07T04:47:04.269Z,84.30
2022-08-07T04:49:57.372Z,84.37
2022-08-07T04:52:33.824Z,82.92
2022-08-07T04:55:14.966Z,82.48
2022-08-07T04:58:13.248Z,80.92
2022-08-07T05:00:59.042Z,80.29
2022-08-07T05:04:06.888Z,81.45
2022-08-07T05:06:28.132Z,81.77
2022-08-07T05:09:08.297Z,81.52
2022-08-07T05:11:57.407Z,80.21
2022-08-07T05:14:52.969Z,79.56
2022-08-07T05:18:00.377Z,79.91
2022-08-07T05:20:10.020Z,79.62
2022-08-07T05:22:39.075Z,79.59
2022-08-07T05:25:08.630Z,79.28
2022-08-07T05:28:03.483Z,78.57
2022-08-07T05:30:30.263Z,78.14
2022-08-07T05:33:02.610Z,77.53
2022-08-07T05:35:33.388Z,76.87
2022-08-07T05:38:09.789Z,76.77
2022-08-07T05:40:50.641Z,77.54
2022-08-07T05:43:43.459Z,78.54
2022-08-07T05:46:10.311Z,78.46
2022-08-07T05:48:38.132Z,78.30
2022-08-07T05:51:24.872Z,77.55
2022-08-07T05:54:13.135Z,76.76
2022-08-07T05:56:40.166Z,77.78
2022-08-07T05:59:13.337Z,77.63
2022-08-07T06:01:41.313Z,77.13
2022-08-07T06:04:09.373Z,77.18
2022-08-07T06:06:36.275Z,78.07
2022-08-07T06:09:05.518Z,77.70
2022-08-07T06:11:34.040Z,76.24
2022-08-07T06:14:13.139Z,77.06
2022-08-07T06:16:50.530Z,77.51
2022-08-07T06:19:51.844Z,76.04
2022-08-07T06:22:14.339Z,76.74
2022-08-07T06:24:57.903Z,77.29
2022-08-07T06:27:44.471Z,76.52
2022-08-07T06:30:32.109Z,75.32
2022-08-07T06:33:01.258Z,75.50
2022-08-07T06:35:39.122Z,76.80
2022-08-07T06:38:19.924Z,77.81
2022-08-07T06:40:50.155Z,75.55
2022-08-07T06:43:21.518Z,75.57
2022-08-07T06:45:49.732Z,74.89
2022-08-07T06:48:24.956Z,75.00
2022-08-07T06:50:53.351Z,75.35
2022-08-07T06:55:29.693Z,73.98
2022-08-07T06:56:14.737Z,75.34
2022-08-07T07:00:12.237Z,75.23
2022-08-07T07:01:43.744Z,75.71
2022-08-07T07:04:32.769Z,72.85
2022-08-07T07:07:02.410Z,74.22
2022-08-07T07:09:38.192Z,74.55
2022-08-07T07:12:08.606Z,73.92
2022-08-07T07:14:51.009Z,74.08
2022-08-07T07:17:30.222Z,73.68
2022-08-07T07:20:13.033Z,75.08
2022-08-07T07:24:05.447Z,73.16
2022-08-07T07:26:35.369Z,74.40
2022-08-07T07:28:48.491Z,72.63
2022-08-07T07:31:23.613Z,72.55
2022-08-07T07:33:57.125Z,72.95
2022-08-07T07:36:32.259Z,72.33
2022-08-07T07:39:02.311Z,71.47
2022-08-07T07:42:02.360Z,71.82
2022-08-07T07:44:26.093Z,72.13
2022-08-07T07:47:00.254Z,71.60
2022-08-07T07:50:36.410Z,71.47
2022-08-07T07:52:27.151Z,70.81
2022-08-07T07:54:55.597Z,69.67
2022-08-07T07:57:53.439Z,69.35
2022-08-07T08:00:20.703Z,69.88
2022-08-07T08:03:04.902Z,71.02
2022-08-07T08:05:51.017Z,70.95
2022-08-07T08:08:34.983Z,69.43
2022-08-07T08:11:08.355Z,69.53
2022-08-07T08:13:53.040Z,67.57
2022-08-07T08:16:29.666Z,67.97
2022-08-07T08:18:58.178Z,68.26
2022-08-07T08:21:55.815Z,69.74
2022-08-07T08:25:04.416Z,69.67
2022-08-07T08:27:55.945Z,68.44
2022-08-07T08:30:25.458Z,68.40
2022-08-07T08:32:59.490Z,67.00
2022-08-07T08:35:28.696Z,66.68
2022-08-07T08:38:03.437Z,67.75
2022-08-07T08:40:38.717Z,68.20
2022-08-07T08:43:20.221Z,67.92
2022-08-07T08:46:28.761Z,67.48
2022-08-07T08:49:10.050Z,68.72
2022-08-07T08:52:20.240Z,66.82
2022-08-07T08:54:49.583Z,67.44
2022-08-07T08:57:27.298Z,67.79
2022-08-07T09:00:09.964Z,66.96
2022-08-07T09:02:39.473Z,68.13
2022-08-07T09:05:15.687Z,67.48
2022-08-07T09:08:10.595Z,66.26
2022-08-07T09:10:50.285Z,66.67
2022-08-07T09:13:36.958Z,67.15
2022-08-07T09:16:29.948Z,66.87
2022-08-07T09:19:51.716Z,67.05
2022-08-07T09:24:28.983Z,67.94
2022-08-07T09:25:17.396Z,65.69
2022-08-07T09:28:01.711Z,65.39
2022-08-07T09:30:52.893Z,65.07
2022-08-07T09:33:56.587Z,65.61
2022-08-07T09:36:46.843Z,66.36
2022-08-07T09:39:55.369Z,65.32
2022-08-07T09:42:33.925Z,65.43
2022-08-07T09:47:27.432Z,65.04
2022-08-07T09:48:19.912Z,64.00
2022-08-07T09:50:55.843Z,63.81
2022-08-07T09:53:25.929Z,65.46
2022-08-07T09:56:03.960Z,63.57
2022-08-07T09:58:42.279Z,65.31
2022-08-07T10:01:54.372Z,64.56
2022-08-07T10:04:47.852Z,63.73
2022-08-07T10:08:03.136Z,64.70
2022-08-07T10:14:00.665Z,63.83
2022-08-07T10:16:27.107Z,64.49
2022-08-07T10:19:17.309Z,64.22
2022-08-07T10:22:24.963Z,64.43
2022-08-07T10:25:22.599Z,65.78
2022-08-07T10:27:59.321Z,66.18
2022-08-07T10:30:51.828Z,65.46
2022-08-07T10:34:05.510Z,65.16
2022-08-07T10:36:41.490Z,65.03
2022-08-07T10:40:02.715Z,64.04
2022-08-07T10:42:39.164Z,65.11
2022-08-07T10:45:57.441Z,63.59
2022-08-07T10:48:34.969Z,63.35
2022-08-07T10:51:16.654Z,63.11
2022-08-07T10:54:17.486Z,63.83
2022-08-07T10:56:59.371Z,63.55
2022-08-07T10:59:47.843Z,62.52
2022-08-07T11:02:41.668Z,62.54
2022-08-07T11:05:35.471Z,61.98
2022-08-07T11:08:49.290Z,61.46
2022-08-07T11:11:25.640Z,64.76
2022-08-07T11:14:44.866Z,62.71
2022-08-07T11:16:54.735Z,62.63
2022-08-07T11:19:33.065Z,60.60
2022-08-07T11:22:26.593Z,61.95
2022-08-07T11:25:11.192Z,63.25
2022-08-07T11:28:02.717Z,61.81
2022-08-07T11:30:42.687Z,61.98
2022-08-07T11:33:15.542Z,62.54
2022-08-07T11:35:59.661Z,62.76
2022-08-07T11:38:37.365Z,62.07
2022-08-07T11:41:18.485Z,62.50
2022-08-07T11:44:11.811Z,62.00
2022-08-07T11:46:56.177Z,61.55
2022-08-07T11:50:30.090Z,61.55
2022-08-07T11:52:45.955Z,62.80
2022-08-07T11:56:25.168Z,62.99
2022-08-07T11:58:34.570Z,62.49
2022-08-07T12:01:05.191Z,61.86
2022-08-07T12:03:45.553Z,61.90
2022-08-07T12:06:39.919Z,60.36
2022-08-07T12:09:23.457Z,60.65
2022-08-07T12:12:36.356Z,60.57
2022-08-07T12:15:46.247Z,60.75
2022-08-07T12:18:29.797Z,60.61
2022-08-07T12:21:16.273Z,61.78
2022-08-07T12:24:37.614Z,60.38
2022-08-07T12:27:27.858Z,60.69
2022-08-07T12:30:08.852Z,59.69
2022-08-07T12:32:54.448Z,59.67
2022-08-07T12:35:24.602Z,58.09
2022-08-07T12:38:10.034Z,58.73
2022-08-07T12:40:47.253Z,58.22
2022-08-07T12:44:01.967Z,58.92
2022-08-07T12:46:12.198Z,59.25
2022-08-07T12:48:52.999Z,59.34
2022-08-07T12:51:33.383Z,57.78
2022-08-07T12:54:41.172Z,59.01
2022-08-07T12:57:10.819Z,58.50
2022-08-07T12:59:54.354Z,58.82
2022-08-07T13:02:42.444Z,58.80
2022-08-07T13:06:03.481Z,57.11
2022-08-07T13:08:34.319Z,59.64
2022-08-07T13:11:23.453Z,59.21
2022-08-07T13:13:57.400Z,59.76
2022-08-07T13:16:44.361Z,58.97
2022-08-07T13:19:50.629Z,59.74
2022-08-07T13:22:32.125Z,60.64
2022-08-07T13:25:04.027Z,59.23
2022-08-07T13:28:12.757Z,59.90
2022-08-07T13:30:53.419Z,59.16
2022-08-07T13:34:34.292Z,58.43
2022-08-07T13:37:10.776Z,57.13
2022-08-07T13:40:35.804Z,58.39
2022-08-07T13:42:54.536Z,58.45
2022-08-07T13:46:12.156Z,58.44
2022-08-07T13:48:27.524Z,58.82
2022-08-07T13:51:01.381Z,57.78
2022-08-07T13:53:36.066Z,56.15
2022-08-07T13:56:36.187Z,56.75
2022-08-07T13:59:25.669Z,58.93
2022-08-07T14:02:08.521Z,56.77
2022-08-07T14:04:49.518Z,56.63
2022-08-07T14:07:21.059Z,58.36
2022-08-07T14:10:12.498Z,58.17
2022-08-07T14:12:54.114Z,59.14
2022-08-07T14:15:44.021Z,56.93
2022-08-07T14:18:29.321Z,58.58
2022-08-07T14:22:41.137Z,58.15
2022-08-07T14:24:24.219Z,57.31
2022-08-07T14:26:56.976Z,58.47
2022-08-07T14:30:07.761Z,57.66
2022-08-07T14:32:28.048Z,59.74
2022-08-07T14:34:55.290Z,59.96
2022-08-07T14:37:38.801Z,57.58
2022-08-07T14:40:17.751Z,58.04
2022-08-07T14:46:07.045Z,58.25
2022-08-07T14:48:37.926Z,57.73
2022-08-07T14:54:09.885Z,57.82
2022-08-07T14:56:50.366Z,58.21
2022-08-07T15:00:06.126Z,59.02
2022-08-07T15:02:34.231Z,58.59
2022-08-07T15:05:02.698Z,58.25
2022-08-07T15:07:46.330Z,58.47
2022-08-07T15:10:25.050Z,58.15
2022-08-07T15:13:11.716Z,58.21
2022-08-07T15:15:52.677Z,58.27
2022-08-07T15:18:33.485Z,59.67
2022-08-07T15:21:08.227Z,60.21
2022-08-07T15:25:14.890Z,59.76
2022-08-07T15:26:57.154Z,58.65
2022-08-07T15:30:08.844Z,58.57
2022-08-07T15:32:39.637Z,58.96
2022-08-07T15:35:19.238Z,59.75
2022-08-07T15:41:22.749Z,59.92
2022-08-07T15:43:58.596Z,58.75
2022-08-07T15:46:37.757Z,59.71
2022-08-07T15:49:15.051Z,59.54
2022-08-07T15:54:31.399Z,58.41
2022-08-07T15:57:02.057Z,58.44
2022-08-07T15:59:39.814Z,58.36
2022-08-07T16:02:22.584Z,59.11
2022-08-07T16:04:55.822Z,59.97
2022-08-07T16:08:32.499Z,60.43
2022-08-07T16:10:20.860Z,60.94
2022-08-07T16:13:18.045Z,59.93
2022-08-07T16:16:42.866Z,59.56
2022-08-07T16:19:58.792Z,59.84
2022-08-07T16:22:33.817Z,60.18
2022-08-07T16:25:54.472Z,58.92
2022-08-07T16:30:05.419Z,59.04
2022-08-07T16:31:51.754Z,59.13
2022-08-07T16:34:45.342Z,59.64
2022-08-07T16:38:03.447Z,59.87
2022-08-07T16:40:23.140Z,59.87
2022-08-07T16:43:23.353Z,59.93
2022-08-07T16:47:07.779Z,58.93
2022-08-07T16:50:27.339Z,60.63
2022-08-07T16:52:53.415Z,61.41
2022-08-07T16:55:22.519Z,60.98
2022-08-07T16:58:21.276Z,61.10
2022-08-07T17:01:22.894Z,61.85
2022-08-07T17:03:57.947Z,62.08
2022-08-07T17:07:02.788Z,61.99
2022-08-07T17:10:07.122Z,62.46
2022-08-07T17:12:47.151Z,63.52
2022-08-07T17:15:44.269Z,62.79
2022-08-07T17:18:40.470Z,63.38
2022-08-07T17:21:22.997Z,63.66
2022-08-07T17:24:01.666Z,63.62
2022-08-07T17:26:50.920Z,62.92
2022-08-07T17:30:14.285Z,63.37
2022-08-07T17:32:52.771Z,62.67
2022-08-07T17:35:51.776Z,62.60
2022-08-07T17:38:33.725Z,62.94
2022-08-07T17:42:03.051Z,62.99
2022-08-07T17:44:34.047Z,62.02
2022-08-07T17:47:16.870Z,62.83
2022-08-07T17:50:14.360Z,62.42
2022-08-07T17:52:58.953Z,62.40
2022-08-07T17:56:00.723Z,63.33
2022-08-07T17:58:50.287Z,63.42
2022-08-07T18:01:34.807Z,63.85
2022-08-07T18:04:16.331Z,64.14
2022-08-07T18:07:19.233Z,64.28
2022-08-07T18:10:06.555Z,64.09
2022-08-07T18:12:33.507Z,64.24
2022-08-07T18:15:11.261Z,64.32
2022-08-07T18:18:08.289Z,64.13
2022-08-07T18:21:51.795Z,64.15
2022-08-07T18:24:33.625Z,64.90
2022-08-07T18:27:38.975Z,65.18
2022-08-07T18:30:31.237Z,65.22
2022-08-07T18:33:34.677Z,65.05
2022-08-07T18:36:32.795Z,65.05
2022-08-07T18:40:08.225Z,66.36
2022-08-07T18:42:36.802Z,67.30
2022-08-07T18:45:39.952Z,68.46
2022-08-07T18:50:05.665Z,69.49
2022-08-07T18:52:35.574Z,70.30
2022-08-07T18:54:31.157Z,69.99
2022-08-07T18:57:37.075Z,70.19
2022-08-07T19:00:32.864Z,69.87
2022-08-07T19:03:04.256Z,71.03
2022-08-07T19:06:03.574Z,72.54
2022-08-07T19:08:58.644Z,72.89
2022-08-07T19:11:37.525Z,73.55
2022-08-07T19:14:16.803Z,74.12
2022-08-07T19:17:06.592Z,74.88
2022-08-07T19:19:49.559Z,74.48
2022-08-07T19:22:30.710Z,74.45
2022-08-07T19:24:58.425Z,74.31
2022-08-07T19:28:56.400Z,74.92
2022-08-07T19:31:05.417Z,75.52
2022-08-07T19:33:18.826Z,75.45
2022-08-07T19:36:01.481Z,75.32
2022-08-07T19:38:32.031Z,74.30
2022-08-07T19:41:00.567Z,74.99
2022-08-07T19:43:48.737Z,75.21
2022-08-07T19:46:22.455Z,75.23
2022-08-07T19:48:59.517Z,75.58
2022-08-07T19:51:52.161Z,75.25
2022-08-07T19:54:32.672Z,76.50
2022-08-07T19:58:00.840Z,76.59
2022-08-07T20:00:02.613Z,76.89
2022-08-07T20:02:53.837Z,76.65
2022-08-07T20:05:28.189Z,76.91
2022-08-07T20:08:02.081Z,76.98
2022-08-07T20:10:35.352Z,77.30
2022-08-07T20:13:26.898Z,76.86
2022-08-07T20:15:57.859Z,76.15
2022-08-07T20:18:33.383Z,76.88
2022-08-07T20:21:03.169Z,78.06
2022-08-07T20:23:40.860Z,78.55
2022-08-07T20:26:29.693Z,78.36
2022-08-07T20:29:10.476Z,78.23
2022-08-07T20:31:46.455Z,79.27
2022-08-07T20:34:14.929Z,78.91
2022-08-07T20:36:43.974Z,77.63
2022-08-07T20:40:01.102Z,78.79
2022-08-07T20:42:14.250Z,79.69
2022-08-07T20:44:49.504Z,78.99
2022-08-07T20:47:25.190Z,79.35
2022-08-07T20:50:00.040Z,80.16
2022-08-07T20:52:51.045Z,78.75
2022-08-07T20:55:23.975Z,78.14
2022-08-07T20:58:03.978Z,76.69
2022-08-07T21:00:44.552Z,76.54
2022-08-07T21:03:15.670Z,75.98
2022-08-07T21:06:21.570Z,77.78
2022-08-07T21:09:00.853Z,77.75
2022-08-07T21:11:40.137Z,75.50
2022-08-07T21:14:32.704Z,77.90
2022-08-07T21:18:02.950Z,78.57
2022-08-07T21:20:05.198Z,78.80
2022-08-07T21:22:53.316Z,78.34
2022-08-07T21:25:23.177Z,78.67
2022-08-07T21:28:08.870Z,78.94
2022-08-07T21:30:46.786Z,79.06
2022-08-07T21:33:20.653Z,79.44
2022-08-07T21:36:04.998Z,79.86
2022-08-07T21:38:54.867Z,80.15
2022-08-07T21:41:52.132Z,79.72
2022-08-07T21:44:53.867Z,80.40
2022-08-07T21:47:37.612Z,80.81
2022-08-07T21:50:22.117Z,80.34
2022-08-07T21:53:09.479Z,80.82
2022-08-07T21:55:48.201Z,81.28
2022-08-07T21:58:39.658Z,81.41
2022-08-07T22:02:06.127Z,81.80
2022-08-07T22:04:24.977Z,80.96
2022-08-07T22:07:06.676Z,80.66
2022-08-07T22:09:54.274Z,80.82
2022-08-07T22:12:27.096Z,80.68
2022-08-07T22:15:02.726Z,80.97
2022-08-07T22:18:11.297Z,80.93
2022-08-07T22:20:54.018Z,81.14
2022-08-07T22:23:23.001Z,81.39
2022-08-07T22:26:30.507Z,81.07
2022-08-07T22:29:09.028Z,82.79
2022-08-07T22:32:20.254Z,81.39
2022-08-07T22:34:56.149Z,82.58
2022-08-07T22:38:03.065Z,81.85
2022-08-07T22:40:46.493Z,82.15
2022-08-07T22:43:17.923Z,82.75
2022-08-07T22:46:46.714Z,83.17
2022-08-07T22:49:21.733Z,82.00
2022-08-07T22:51:51.856Z,82.10
2022-08-07T22:54:24.713Z,81.55
2022-08-07T22:57:01.011Z,82.43
2022-08-07T23:00:09.467Z,81.63
2022-08-07T23:02:56.912Z,82.29
2022-08-07T23:06:06.873Z,82.06
2022-08-07T23:08:49.721Z,81.82
2022-08-07T23:12:09.659Z,81.99
2022-08-07T23:14:59.889Z,81.87
2022-08-07T23:17:41.955Z,83.30
2022-08-07T23:20:59.601Z,82.71
2022-08-07T23:24:06.427Z,83.29
2022-08-07T23:26:23.534Z,83.94
2022-08-07T23:29:42.674Z,83.53
2022-08-07T23:34:22.442Z,83.77
2022-08-07T23:35:19.594Z,83.33
2022-08-07T23:38:19.099Z,83.37
2022-08-07T23:41:33.503Z,83.20
2022-08-07T23:44:19.057Z,83.62
2022-08-07T23:47:46.496Z,82.65
2022-08-07T23:50:38.287Z,82.91
2022-08-07T23:53:51.722Z,83.75
2022-08-07T23:56:54.203Z,83.28
